Weather at El Dorado International Airport

Public forecast

Using degrees Celsius for public forecast. Weather courtesy of forecast.io.

Current aviation weather report (METAR) for El Dorado International Airport

Retrieved 2020/09/24 23:00 UTC (54 minutes ago):

SKBO 242300Z 12009KT 9999 FEW020 15/07 A3034 NOSIG

Aviation forecast (TAF) for El Dorado International Airport

Retrieved 2020/09/24 18:30 UTC (5 hours ago):

TAF SKBO 241630Z 2418/2518 12013KT 9999 BKN017 TEMPO 2419/2423 DZ BKN080 BECMG 2501/2502 VRB02KT BECMG 2515/2517 14012KT TX19/2418Z TN10/2511Z